createdAt,value
2024-03-16T00:01:10.552Z,82.81
2024-03-16T00:04:07.523Z,82.86
2024-03-16T00:06:50.160Z,82.95
2024-03-16T00:09:31.485Z,83.09
2024-03-16T00:12:16.314Z,83.20
2024-03-16T00:14:57.950Z,83.36
2024-03-16T00:17:52.462Z,83.45
2024-03-16T00:20:40.399Z,83.69
2024-03-16T00:23:15.547Z,83.84
2024-03-16T00:26:03.435Z,83.96
2024-03-16T00:28:38.585Z,83.92
2024-03-16T00:31:26.403Z,84.08
2024-03-16T00:34:08.460Z,84.15
2024-03-16T00:37:03.438Z,84.26
2024-03-16T00:39:51.461Z,84.16
2024-03-16T00:42:27.192Z,84.07
2024-03-16T00:45:15.437Z,84.19
2024-03-16T00:47:50.697Z,84.29
2024-03-16T00:50:42.162Z,84.40
2024-03-16T00:53:19.137Z,84.57
2024-03-16T00:56:08.820Z,84.54
2024-03-16T00:58:44.904Z,84.61
2024-03-16T01:01:36.481Z,84.73
2024-03-16T01:04:12.611Z,84.87
2024-03-16T01:07:00.561Z,84.92
2024-03-16T01:09:35.590Z,85.06
2024-03-16T01:12:23.414Z,85.05
2024-03-16T01:15:02.201Z,85.16
2024-03-16T01:17:52.440Z,85.25
2024-03-16T01:20:29.334Z,85.43
2024-03-16T01:23:18.621Z,85.52
2024-03-16T01:25:53.860Z,85.58
2024-03-16T01:28:42.013Z,85.71
2024-03-16T01:31:24.000Z,85.80
2024-03-16T01:34:13.243Z,85.94
2024-03-16T01:36:56.484Z,86.08
2024-03-16T01:39:52.564Z,86.23
2024-03-16T01:42:47.479Z,86.49
2024-03-16T01:45:43.970Z,86.71
2024-03-16T01:48:32.428Z,87.01
2024-03-16T01:51:08.541Z,86.94
2024-03-16T01:53:56.396Z,87.06
2024-03-16T01:56:38.393Z,87.20
2024-03-16T01:59:33.428Z,87.27
2024-03-16T02:02:49.826Z,87.25
2024-03-16T02:05:37.446Z,87.37
2024-03-16T02:08:13.037Z,87.38
2024-03-16T02:11:01.416Z,87.43
2024-03-16T02:13:49.406Z,87.49
2024-03-16T02:16:24.120Z,87.46
2024-03-16T02:19:12.451Z,87.40
2024-03-16T02:22:00.563Z,87.32
2024-03-16T02:24:35.539Z,87.26
2024-03-16T02:27:24.539Z,87.14
2024-03-16T02:29:59.538Z,87.17
2024-03-16T02:32:47.463Z,87.16
2024-03-16T02:35:23.715Z,87.13
2024-03-16T02:38:11.425Z,87.28
2024-03-16T02:40:53.424Z,87.57
2024-03-16T02:43:48.396Z,87.84
2024-03-16T02:46:37.004Z,88.01
2024-03-16T02:49:20.015Z,87.89
2024-03-16T02:52:18.189Z,88.03
2024-03-16T02:55:07.481Z,88.27
2024-03-16T02:57:43.427Z,88.38
2024-03-16T03:00:35.676Z,88.59
2024-03-16T03:03:17.387Z,88.84
2024-03-16T03:06:12.750Z,89.47
2024-03-16T03:09:01.911Z,89.79
2024-03-16T03:11:46.172Z,89.92
2024-03-16T03:14:41.379Z,89.79
2024-03-16T03:17:29.454Z,89.76
2024-03-16T03:20:19.387Z,89.94
2024-03-16T03:22:53.833Z,90.51
2024-03-16T03:25:41.752Z,90.79
2024-03-16T03:28:17.485Z,91.06
2024-03-16T03:31:08.095Z,90.70
2024-03-16T03:33:50.373Z,90.84
2024-03-16T03:36:39.397Z,91.04
2024-03-16T03:39:26.742Z,90.88
2024-03-16T03:42:12.544Z,90.85
2024-03-16T03:45:13.624Z,90.77
2024-03-16T03:48:02.824Z,90.38
2024-03-16T03:50:46.589Z,89.84
2024-03-16T03:53:30.533Z,89.81
2024-03-16T03:56:12.404Z,89.78
2024-03-16T03:59:02.470Z,89.64
2024-03-16T04:01:38.587Z,89.84
2024-03-16T04:04:26.671Z,89.57
2024-03-16T04:07:02.753Z,88.83
2024-03-16T04:09:53.956Z,88.15
2024-03-16T04:12:30.011Z,87.55
2024-03-16T04:15:19.379Z,87.09
2024-03-16T04:17:54.922Z,86.95
2024-03-16T04:20:44.377Z,87.13
2024-03-16T04:23:26.177Z,87.44
2024-03-16T04:26:07.551Z,87.61
2024-03-16T04:28:48.392Z,87.66
2024-03-16T04:31:30.046Z,87.62
2024-03-16T04:34:12.223Z,87.82
2024-03-16T04:36:53.589Z,88.01
2024-03-16T04:39:35.414Z,88.18
2024-03-16T04:42:18.521Z,88.23
2024-03-16T04:45:00.859Z,88.19
2024-03-16T04:47:42.777Z,87.93
2024-03-16T04:50:32.390Z,87.71
2024-03-16T04:53:14.224Z,87.50
2024-03-16T04:55:58.414Z,87.16
2024-03-16T04:58:53.386Z,86.59
2024-03-16T05:01:48.497Z,86.05
2024-03-16T05:04:37.310Z,85.44
2024-03-16T05:07:12.831Z,84.86
2024-03-16T05:10:02.058Z,84.51
2024-03-16T05:12:44.948Z,84.26
2024-03-16T05:15:40.594Z,84.11
2024-03-16T05:18:30.377Z,83.97
2024-03-16T05:21:06.130Z,83.98
2024-03-16T05:23:54.376Z,83.63
2024-03-16T05:26:33.480Z,83.51
2024-03-16T05:29:23.741Z,83.23
2024-03-16T05:32:06.961Z,83.30
2024-03-16T05:34:55.365Z,83.43
2024-03-16T05:37:31.696Z,83.64
2024-03-16T05:40:22.450Z,83.96
2024-03-16T05:43:12.492Z,84.29
2024-03-16T05:45:52.355Z,84.44
2024-03-16T05:48:40.505Z,84.55
2024-03-16T05:51:16.713Z,84.79
2024-03-16T05:54:05.995Z,84.99
2024-03-16T05:56:41.760Z,85.15
2024-03-16T05:59:29.359Z,85.23
2024-03-16T06:02:24.885Z,85.55
2024-03-16T06:05:12.856Z,85.94
2024-03-16T06:07:55.218Z,86.03
2024-03-16T06:10:52.389Z,85.96
2024-03-16T06:13:40.371Z,85.81
2024-03-16T06:16:16.014Z,85.56
2024-03-16T06:19:04.392Z,85.07
2024-03-16T06:21:39.586Z,84.87
2024-03-16T06:24:27.992Z,84.78
2024-03-16T06:27:07.229Z,84.48
2024-03-16T06:30:03.356Z,84.26
2024-03-16T06:32:40.976Z,84.03
2024-03-16T06:35:30.624Z,83.74
2024-03-16T06:38:11.481Z,83.03
2024-03-16T06:40:53.628Z,82.19
2024-03-16T06:43:44.438Z,81.80
2024-03-16T06:46:19.863Z,82.00
2024-03-16T06:49:12.426Z,81.40
2024-03-16T06:51:46.770Z,80.74
2024-03-16T06:54:34.401Z,81.49
2024-03-16T06:57:08.744Z,81.28
2024-03-16T06:59:56.368Z,80.86
2024-03-16T07:02:31.832Z,80.44
2024-03-16T07:05:20.369Z,79.87
2024-03-16T07:07:54.763Z,79.10
2024-03-16T07:10:42.374Z,78.09
2024-03-16T07:13:16.815Z,78.40
2024-03-16T07:16:04.445Z,78.72
2024-03-16T07:18:47.519Z,78.52
2024-03-16T07:21:29.791Z,78.13
2024-03-16T07:24:12.343Z,77.75
2024-03-16T07:26:53.561Z,78.13
2024-03-16T07:29:34.357Z,78.57
2024-03-16T07:32:15.497Z,78.73
2024-03-16T07:34:56.377Z,78.86
2024-03-16T07:37:37.537Z,78.20
2024-03-16T07:40:21.433Z,78.13
2024-03-16T07:43:03.159Z,78.28
2024-03-16T07:45:50.425Z,78.23
2024-03-16T07:48:31.965Z,77.80
2024-03-16T07:51:13.361Z,77.33
2024-03-16T07:53:55.314Z,77.21
2024-03-16T07:56:36.338Z,76.74
2024-03-16T07:59:31.364Z,77.40
2024-03-16T08:02:21.034Z,77.28
2024-03-16T08:04:55.486Z,77.29
2024-03-16T08:07:43.352Z,77.08
2024-03-16T08:10:31.427Z,76.83
2024-03-16T08:13:05.872Z,76.77
2024-03-16T08:15:56.347Z,76.17
2024-03-16T08:18:51.364Z,76.03
2024-03-16T08:21:40.423Z,76.07
2024-03-16T08:24:17.513Z,75.87
2024-03-16T08:27:05.427Z,74.86
2024-03-16T08:29:40.504Z,74.58
2024-03-16T08:32:29.409Z,73.97
2024-03-16T08:35:12.359Z,73.29
2024-03-16T08:38:07.390Z,73.37
2024-03-16T08:40:56.486Z,73.33
2024-03-16T08:43:31.582Z,72.87
2024-03-16T08:46:19.428Z,72.56
2024-03-16T08:48:54.486Z,72.54
2024-03-16T08:51:42.395Z,73.03
2024-03-16T08:54:23.521Z,73.21
2024-03-16T08:57:04.387Z,73.56
2024-03-16T08:59:59.390Z,74.67
2024-03-16T09:02:47.374Z,75.58
2024-03-16T09:05:29.447Z,76.32
2024-03-16T09:08:30.341Z,76.79
2024-03-16T09:11:19.419Z,76.58
2024-03-16T09:13:54.523Z,76.73
2024-03-16T09:16:45.556Z,76.07
2024-03-16T09:19:28.575Z,76.49
2024-03-16T09:22:10.405Z,76.40
2024-03-16T09:24:58.371Z,75.76
2024-03-16T09:27:38.445Z,75.06
2024-03-16T09:30:26.365Z,73.99
2024-03-16T09:33:01.259Z,72.64
2024-03-16T09:35:50.392Z,72.50
2024-03-16T09:38:24.730Z,71.38
2024-03-16T09:41:12.387Z,71.92
